createdAt,value
2023-04-24T00:00:41.844Z,0.98
2023-04-24T00:03:09.006Z,0.90
2023-04-24T00:05:35.645Z,1.23
2023-04-24T00:08:02.151Z,1.40
2023-04-24T00:10:28.691Z,1.20
2023-04-24T00:12:55.224Z,1.27
2023-04-24T00:15:21.731Z,1.52
2023-04-24T00:17:48.790Z,1.20
2023-04-24T00:20:15.827Z,1.50
2023-04-24T00:22:42.381Z,1.60
2023-04-24T00:25:09.184Z,1.80
2023-04-24T00:27:37.688Z,2.03
2023-04-24T00:30:04.505Z,1.60
2023-04-24T00:32:31.134Z,2.20
2023-04-24T00:34:57.680Z,2.00
2023-04-24T00:37:24.189Z,1.90
2023-04-24T00:39:50.675Z,1.98
2023-04-24T00:42:17.185Z,2.20
2023-04-24T00:44:43.936Z,2.42
2023-04-24T00:47:11.615Z,2.35
2023-04-24T00:49:38.043Z,2.70
2023-04-24T00:52:08.590Z,2.20
2023-04-24T00:54:35.929Z,2.30
2023-04-24T00:57:03.645Z,2.00
2023-04-24T00:59:30.279Z,1.92
2023-04-24T01:01:57.090Z,1.88
2023-04-24T01:04:23.801Z,2.20
2023-04-24T01:06:53.465Z,2.08
2023-04-24T01:09:20.212Z,2.38
2023-04-24T01:11:47.924Z,2.08
2023-04-24T01:14:14.521Z,1.90
2023-04-24T01:16:42.098Z,2.13
2023-04-24T01:19:08.662Z,2.17
2023-04-24T01:21:37.666Z,2.20
2023-04-24T01:24:06.922Z,1.83
2023-04-24T01:26:33.825Z,2.13
2023-04-24T01:29:00.305Z,2.47
2023-04-24T01:31:27.067Z,1.88
2023-04-24T01:33:53.525Z,1.75
2023-04-24T01:36:20.065Z,1.98
2023-04-24T01:38:46.626Z,1.60
2023-04-24T01:41:13.168Z,1.65
2023-04-24T01:43:39.810Z,1.90
2023-04-24T01:46:06.970Z,1.60
2023-04-24T01:48:37.185Z,1.65
2023-04-24T01:51:03.740Z,1.63
2023-04-24T01:53:30.264Z,1.60
2023-04-24T01:55:56.741Z,1.73
2023-04-24T01:58:23.886Z,1.80
2023-04-24T02:00:50.627Z,1.42
2023-04-24T02:03:17.337Z,1.50
2023-04-24T02:05:46.926Z,1.98
2023-04-24T02:08:13.395Z,1.42
2023-04-24T02:10:39.915Z,1.45
2023-04-24T02:13:06.484Z,1.83
2023-04-24T02:15:32.966Z,1.50
2023-04-24T02:17:59.577Z,1.80
2023-04-24T02:20:26.366Z,1.50
2023-04-24T02:22:54.267Z,1.50
2023-04-24T02:25:20.869Z,1.60
2023-04-24T02:27:47.395Z,1.45
2023-04-24T02:30:13.997Z,1.70
2023-04-24T02:32:40.578Z,1.58
2023-04-24T02:35:07.466Z,1.90
2023-04-24T02:37:34.005Z,1.80
2023-04-24T02:40:00.547Z,1.70
2023-04-24T02:42:27.108Z,1.55
2023-04-24T02:44:53.970Z,1.90
2023-04-24T02:47:20.493Z,1.70
2023-04-24T02:49:47.006Z,1.95
2023-04-24T02:52:14.182Z,1.70
2023-04-24T02:54:40.995Z,1.85
2023-04-24T02:57:07.409Z,1.88
2023-04-24T02:59:34.366Z,1.98
2023-04-24T03:02:01.091Z,1.95
2023-04-24T03:04:27.739Z,1.95
2023-04-24T03:06:55.773Z,1.80
2023-04-24T03:09:22.526Z,2.10
2023-04-24T03:11:50.409Z,1.92
2023-04-24T03:14:17.605Z,2.10
2023-04-24T03:16:44.067Z,1.83
2023-04-24T03:19:10.634Z,1.92
2023-04-24T03:21:41.498Z,2.10
2023-04-24T03:24:08.451Z,2.15
2023-04-24T03:26:34.932Z,2.10
2023-04-24T03:29:01.454Z,2.22
2023-04-24T03:31:28.051Z,2.78
2023-04-24T03:33:54.498Z,2.53
2023-04-24T03:36:21.294Z,2.53
2023-04-24T03:38:47.753Z,3.10
2023-04-24T03:41:14.282Z,3.08
2023-04-24T03:43:40.900Z,3.00
2023-04-24T03:46:08.061Z,2.70
2023-04-24T03:48:34.651Z,3.17
2023-04-24T03:51:01.747Z,3.30
2023-04-24T03:53:28.816Z,3.63
2023-04-24T03:55:56.015Z,3.35
2023-04-24T03:58:22.689Z,3.90
2023-04-24T04:00:49.180Z,3.65
2023-04-24T04:03:15.915Z,3.90
2023-04-24T04:05:42.582Z,3.67
2023-04-24T04:08:09.058Z,3.40
2023-04-24T04:10:35.606Z,3.58
2023-04-24T04:13:02.232Z,3.63
2023-04-24T04:15:28.768Z,3.88
2023-04-24T04:17:55.290Z,4.55
2023-04-24T04:20:21.791Z,3.95
2023-04-24T04:22:48.198Z,4.00
2023-04-24T04:25:14.692Z,4.10
2023-04-24T04:27:42.652Z,3.28
2023-04-24T04:30:10.782Z,3.55
2023-04-24T04:32:38.345Z,3.70
2023-04-24T04:35:05.270Z,3.42
2023-04-24T04:37:32.321Z,3.63
2023-04-24T04:39:59.178Z,3.03
2023-04-24T04:42:26.035Z,3.00
2023-04-24T04:44:52.527Z,3.45
2023-04-24T04:47:19.189Z,2.50
2023-04-24T04:49:45.790Z,2.95
2023-04-24T04:52:12.395Z,2.80
2023-04-24T04:54:38.901Z,2.17
2023-04-24T04:57:05.986Z,1.98
2023-04-24T04:59:32.469Z,2.42
2023-04-24T05:01:58.933Z,1.77
2023-04-24T05:04:27.705Z,1.67
2023-04-24T05:06:54.271Z,1.80
2023-04-24T05:09:20.769Z,1.42
2023-04-24T05:11:47.238Z,1.55
2023-04-24T05:14:13.861Z,1.90
2023-04-24T05:16:42.598Z,1.65
2023-04-24T05:19:09.289Z,2.22
2023-04-24T05:21:35.812Z,1.52
2023-04-24T05:24:02.293Z,1.80
2023-04-24T05:26:28.798Z,1.50
2023-04-24T05:28:55.286Z,1.20
2023-04-24T05:31:22.155Z,1.63
2023-04-24T05:33:48.740Z,1.40
2023-04-24T05:36:15.696Z,1.60
2023-04-24T05:38:42.159Z,1.35
2023-04-24T05:41:08.668Z,1.50
2023-04-24T05:43:35.299Z,1.13
2023-04-24T05:46:01.790Z,0.90
2023-04-24T05:48:28.513Z,0.90
2023-04-24T05:50:55.025Z,0.90
2023-04-24T05:53:21.777Z,0.65
2023-04-24T05:55:48.450Z,1.60
2023-04-24T05:58:15.629Z,0.90
2023-04-24T06:00:43.670Z,0.77
2023-04-24T06:03:10.578Z,1.13
2023-04-24T06:05:37.284Z,0.88
2023-04-24T06:08:03.847Z,0.80
2023-04-24T06:10:30.290Z,0.80
2023-04-24T06:13:01.452Z,0.73
2023-04-24T06:15:29.236Z,1.50
2023-04-24T06:17:55.826Z,0.90
2023-04-24T06:20:22.307Z,1.20
2023-04-24T06:22:48.832Z,1.10
2023-04-24T06:25:15.390Z,1.10
2023-04-24T06:27:41.851Z,1.23
2023-04-24T06:30:08.742Z,0.90
2023-04-24T06:32:35.309Z,0.80
2023-04-24T06:35:01.899Z,0.90
2023-04-24T06:37:28.474Z,1.15
2023-04-24T06:39:54.909Z,0.63
2023-04-24T06:42:25.696Z,0.60
2023-04-24T06:44:52.214Z,0.60
2023-04-24T06:47:19.629Z,0.70
2023-04-24T06:49:46.316Z,0.60
2023-04-24T06:52:13.012Z,0.73
2023-04-24T06:54:39.561Z,1.30
2023-04-24T06:57:06.119Z,0.90
2023-04-24T06:59:32.585Z,0.77
2023-04-24T07:01:59.190Z,0.82
2023-04-24T07:04:26.513Z,0.70
2023-04-24T07:06:55.385Z,0.68
2023-04-24T07:09:23.047Z,0.70
2023-04-24T07:11:49.660Z,0.85
2023-04-24T07:14:16.317Z,0.70
2023-04-24T07:16:43.102Z,0.70
2023-04-24T07:19:09.770Z,0.80
2023-04-24T07:21:36.289Z,0.75
2023-04-24T07:24:02.809Z,0.90
2023-04-24T07:26:32.381Z,0.85
2023-04-24T07:28:58.867Z,0.90
2023-04-24T07:31:25.574Z,0.75
2023-04-24T07:33:52.199Z,0.80
2023-04-24T07:36:20.012Z,0.90
2023-04-24T07:38:46.967Z,0.80
2023-04-24T07:41:16.261Z,1.10
2023-04-24T07:43:42.906Z,0.93
2023-04-24T07:46:09.946Z,1.20
2023-04-24T07:48:36.539Z,1.02
2023-04-24T07:51:03.119Z,1.02
2023-04-24T07:53:29.608Z,1.02
2023-04-24T07:55:57.089Z,1.15
2023-04-24T07:58:23.643Z,1.85
2023-04-24T08:00:50.156Z,1.10
2023-04-24T08:03:19.890Z,1.30
2023-04-24T08:05:46.674Z,1.30
2023-04-24T08:08:13.196Z,1.10
2023-04-24T08:10:39.907Z,0.85
2023-04-24T08:13:06.413Z,1.20
2023-04-24T08:15:32.861Z,0.60
2023-04-24T08:17:59.413Z,1.10
2023-04-24T08:20:26.095Z,1.02
2023-04-24T08:22:52.571Z,0.93
2023-04-24T08:25:20.188Z,0.90
2023-04-24T08:27:48.352Z,1.13
2023-04-24T08:30:15.016Z,1.05
2023-04-24T08:32:41.602Z,1.10
2023-04-24T08:35:10.292Z,0.95
2023-04-24T08:37:37.078Z,1.00
2023-04-24T08:40:07.249Z,1.20
2023-04-24T08:42:35.272Z,1.23
2023-04-24T08:45:01.798Z,1.05
2023-04-24T08:47:28.762Z,0.88
2023-04-24T08:49:55.306Z,1.25
2023-04-24T08:52:22.869Z,1.05
2023-04-24T08:54:49.374Z,1.00
2023-04-24T08:57:16.040Z,1.27
2023-04-24T08:59:43.220Z,1.00
2023-04-24T09:02:11.643Z,1.00
2023-04-24T09:04:39.133Z,1.10
2023-04-24T09:07:07.095Z,1.10
2023-04-24T09:09:33.897Z,0.70
2023-04-24T09:12:01.328Z,0.93
2023-04-24T09:14:29.080Z,0.90
2023-04-24T09:16:55.593Z,1.00
2023-04-24T09:19:23.447Z,0.80
2023-04-24T09:21:50.041Z,0.90
2023-04-24T09:24:18.849Z,1.02
2023-04-24T09:26:45.794Z,0.90
2023-04-24T09:29:18.771Z,0.88
2023-04-24T09:31:45.770Z,0.70
2023-04-24T09:34:13.086Z,0.80
2023-04-24T09:36:41.849Z,1.23
2023-04-24T09:39:12.742Z,1.00
2023-04-24T09:41:46.927Z,0.95
2023-04-24T09:44:13.494Z,0.80
2023-04-24T09:46:40.018Z,0.93
2023-04-24T09:49:11.261Z,0.82
2023-04-24T09:51:38.600Z,0.90
2023-04-24T09:54:05.750Z,1.10
2023-04-24T09:56:35.419Z,0.98
2023-04-24T09:59:08.404Z,0.63
2023-04-24T10:01:35.741Z,1.02
2023-04-24T10:04:02.278Z,0.93
2023-04-24T10:06:35.758Z,0.90
2023-04-24T10:09:02.260Z,1.05
2023-04-24T10:11:29.142Z,0.85
2023-04-24T10:13:56.718Z,0.70
2023-04-24T10:16:23.719Z,0.95
2023-04-24T10:18:50.695Z,1.42
2023-04-24T10:21:18.876Z,1.50
2023-04-24T10:23:47.592Z,1.77
2023-04-24T10:26:18.675Z,1.60
2023-04-24T10:28:46.438Z,1.17
2023-04-24T10:31:13.429Z,1.17
2023-04-24T10:33:42.446Z,1.33
2023-04-24T10:36:10.117Z,1.40
2023-04-24T10:38:37.197Z,1.20
2023-04-24T10:41:10.832Z,1.48
2023-04-24T10:43:37.387Z,1.02
2023-04-24T10:46:04.694Z,1.30
2023-04-24T10:48:31.681Z,1.30
2023-04-24T10:50:58.233Z,1.40
2023-04-24T10:53:27.773Z,1.52
2023-04-24T10:56:07.221Z,1.42
2023-04-24T10:58:41.732Z,1.33
2023-04-24T11:01:08.485Z,1.40
2023-04-24T11:03:36.392Z,1.60
2023-04-24T11:06:07.151Z,1.27
2023-04-24T11:08:39.964Z,1.35
2023-04-24T11:11:09.277Z,1.58
2023-04-24T11:13:54.561Z,1.10
2023-04-24T11:16:22.875Z,1.30
2023-04-24T11:18:55.311Z,1.42
2023-04-24T11:21:23.158Z,1.48
2023-04-24T11:23:49.807Z,1.10
2023-04-24T11:26:22.408Z,1.33
2023-04-24T11:28:50.523Z,1.30
2023-04-24T11:31:36.418Z,1.40
2023-04-24T11:34:14.907Z,1.00
2023-04-24T11:36:46.275Z,1.00
2023-04-24T11:39:12.898Z,0.80
2023-04-24T11:41:39.497Z,1.13
2023-04-24T11:44:09.057Z,1.02
2023-04-24T11:46:35.820Z,1.13
2023-04-24T11:49:02.638Z,0.90
2023-04-24T11:51:33.779Z,1.00
2023-04-24T11:54:08.782Z,1.45
2023-04-24T11:56:35.358Z,0.93
2023-04-24T11:59:04.897Z,1.30
2023-04-24T12:01:43.259Z,1.80
2023-04-24T12:04:09.985Z,0.90
2023-04-24T12:06:36.817Z,0.90
2023-04-24T12:09:11.398Z,0.60
2023-04-24T12:11:53.819Z,0.60
2023-04-24T12:16:48.873Z,0.65
2023-04-24T12:19:24.762Z,0.65
2023-04-24T12:22:04.927Z,0.30
2023-04-24T12:24:31.883Z,0.40
2023-04-24T12:26:58.944Z,0.35
2023-04-24T12:29:25.668Z,0.35
2023-04-24T12:31:52.828Z,0.40
2023-04-24T12:34:21.230Z,0.40
2023-04-24T12:36:48.216Z,0.28
2023-04-24T12:39:19.415Z,0.50
2023-04-24T12:41:57.094Z,0.90
2023-04-24T12:44:49.736Z,0.52
2023-04-24T12:47:16.179Z,0.40
2023-04-24T12:49:42.677Z,0.30
2023-04-24T12:52:09.185Z,0.50
2023-04-24T12:54:35.739Z,0.35
2023-04-24T12:57:02.479Z,0.50
2023-04-24T12:59:28.947Z,0.50
2023-04-24T13:01:57.985Z,0.60
2023-04-24T13:04:25.793Z,0.60
2023-04-24T13:06:52.293Z,0.50
2023-04-24T13:09:18.827Z,0.57
2023-04-24T13:11:45.350Z,0.68
2023-04-24T13:14:11.859Z,0.77
2023-04-24T13:16:38.825Z,0.68
2023-04-24T13:19:05.309Z,0.73
2023-04-24T13:21:31.858Z,0.73
2023-04-24T13:23:58.307Z,1.00
2023-04-24T13:26:24.820Z,1.08
2023-04-24T13:28:51.301Z,0.85
2023-04-24T13:31:17.977Z,0.90
2023-04-24T13:33:44.825Z,0.93
2023-04-24T13:36:11.647Z,0.93
2023-04-24T13:38:38.152Z,1.00
2023-04-24T13:41:04.600Z,0.88
2023-04-24T13:43:31.109Z,0.90
2023-04-24T13:45:57.605Z,1.10
2023-04-24T13:48:24.081Z,1.27
2023-04-24T13:50:50.645Z,0.90
2023-04-24T13:53:17.144Z,1.40
2023-04-24T13:55:43.587Z,1.40
2023-04-24T13:58:10.075Z,0.93
2023-04-24T14:00:36.542Z,1.83
2023-04-24T14:03:03.077Z,1.38
2023-04-24T14:05:30.882Z,1.10
2023-04-24T14:08:01.040Z,1.30
2023-04-24T14:10:28.194Z,1.25
2023-04-24T14:12:54.685Z,1.70
2023-04-24T14:15:21.139Z,1.48
2023-04-24T14:17:49.188Z,1.42
2023-04-24T14:20:15.750Z,1.30
2023-04-24T14:22:42.310Z,1.50
2023-04-24T14:25:10.053Z,1.35
2023-04-24T14:27:36.717Z,1.40
2023-04-24T14:30:04.211Z,1.80
2023-04-24T14:32:30.791Z,1.38
2023-04-24T14:34:58.040Z,2.90
2023-04-24T14:37:24.497Z,2.67
2023-04-24T14:40:05.614Z,2.65
2023-04-24T14:42:37.445Z,1.40
2023-04-24T14:45:04.009Z,1.55
2023-04-24T14:47:30.645Z,1.50
2023-04-24T14:49:57.206Z,1.83
2023-04-24T14:52:23.771Z,1.80
2023-04-24T14:54:50.377Z,1.65
2023-04-24T14:57:16.892Z,1.33
2023-04-24T14:59:43.337Z,1.17
2023-04-24T15:04:41.552Z,0.80
2023-04-24T15:07:08.238Z,0.80
2023-04-24T15:09:35.270Z,1.23
2023-04-24T15:12:02.749Z,1.30
2023-04-24T15:14:29.592Z,1.20
2023-04-24T15:16:56.198Z,0.80
2023-04-24T15:19:23.429Z,0.95
2023-04-24T15:21:49.891Z,1.67
2023-04-24T15:24:16.449Z,1.35
2023-04-24T15:26:42.928Z,1.83
2023-04-24T15:29:09.383Z,1.45
2023-04-24T15:31:36.306Z,1.38
2023-04-24T15:34:02.851Z,1.40
2023-04-24T15:36:29.406Z,1.75
2023-04-24T15:38:55.913Z,2.13
2023-04-24T15:41:22.389Z,1.40
2023-04-24T15:43:49.138Z,1.33
2023-04-24T15:46:16.128Z,1.20
2023-04-24T15:48:43.125Z,1.40
2023-04-24T15:51:09.626Z,1.00
2023-04-24T15:53:36.063Z,1.20
2023-04-24T15:56:02.624Z,1.05
2023-04-24T15:58:29.222Z,0.90
2023-04-24T16:00:55.896Z,1.00
2023-04-24T16:03:22.791Z,0.90
2023-04-24T16:05:49.481Z,1.08
2023-04-24T16:08:16.651Z,1.10
2023-04-24T16:10:44.208Z,0.93
2023-04-24T16:13:10.748Z,1.05
2023-04-24T16:15:37.403Z,1.10
2023-04-24T16:18:04.001Z,1.27
2023-04-24T16:20:30.882Z,1.30
2023-04-24T16:22:57.392Z,1.05
2023-04-24T16:25:23.870Z,1.25
2023-04-24T16:27:52.615Z,1.27
2023-04-24T16:30:19.480Z,1.10
2023-04-24T16:32:46.128Z,0.90
2023-04-24T16:35:12.640Z,1.02
2023-04-24T16:37:40.767Z,1.08
2023-04-24T16:40:10.726Z,1.10
2023-04-24T16:42:37.496Z,1.17
2023-04-24T16:45:04.260Z,0.93
2023-04-24T16:47:30.737Z,1.35
2023-04-24T16:49:57.205Z,1.27
2023-04-24T16:52:23.718Z,1.25
2023-04-24T16:54:50.316Z,1.52
2023-04-24T16:57:16.885Z,1.35
2023-04-24T16:59:43.349Z,1.30
2023-04-24T17:02:10.186Z,1.23
2023-04-24T17:04:36.884Z,1.05
2023-04-24T17:07:03.595Z,1.50
2023-04-24T17:09:30.700Z,1.40
2023-04-24T17:11:57.709Z,1.25
2023-04-24T17:14:26.411Z,1.13
2023-04-24T17:16:53.413Z,1.05
2023-04-24T17:19:20.404Z,1.30
2023-04-24T17:21:46.867Z,1.13
2023-04-24T17:24:14.095Z,1.13
2023-04-24T17:26:40.729Z,1.30
2023-04-24T17:29:07.171Z,1.10
2023-04-24T17:31:33.671Z,1.40
2023-04-24T17:34:00.200Z,1.27
2023-04-24T17:36:26.775Z,1.63
2023-04-24T17:38:53.278Z,1.67
2023-04-24T17:41:19.772Z,1.65
2023-04-24T17:43:46.301Z,1.77
2023-04-24T17:46:13.399Z,1.92
2023-04-24T17:48:40.163Z,1.90
2023-04-24T17:51:06.707Z,1.95
2023-04-24T17:53:37.326Z,2.03
2023-04-24T17:56:04.124Z,1.55
2023-04-24T17:58:31.344Z,1.58
2023-04-24T18:00:57.945Z,1.60
2023-04-24T18:03:24.702Z,1.52
2023-04-24T18:05:51.616Z,1.80
2023-04-24T18:08:18.121Z,1.65
2023-04-24T18:10:45.070Z,1.75
2023-04-24T18:13:11.655Z,1.50
2023-04-24T18:15:42.033Z,1.50
2023-04-24T18:18:09.050Z,1.38
2023-04-24T18:20:35.728Z,2.33
2023-04-24T18:23:03.681Z,1.48
2023-04-24T18:25:30.808Z,1.50
2023-04-24T18:28:00.363Z,2.03
2023-04-24T18:30:28.199Z,2.10
2023-04-24T18:32:54.819Z,1.67
2023-04-24T18:35:21.914Z,1.95
2023-04-24T18:37:48.852Z,2.25
2023-04-24T18:40:15.707Z,2.28
2023-04-24T18:42:42.772Z,2.08
2023-04-24T18:45:10.931Z,2.05
2023-04-24T18:47:39.038Z,2.65
2023-04-24T18:50:06.177Z,1.90
2023-04-24T18:52:32.759Z,2.42
2023-04-24T18:54:59.291Z,1.70
2023-04-24T18:57:26.054Z,2.47
2023-04-24T18:59:52.550Z,2.20
2023-04-24T19:02:19.197Z,2.58
2023-04-24T19:04:45.836Z,2.80
2023-04-24T19:07:12.424Z,2.50
2023-04-24T19:09:38.936Z,2.60
2023-04-24T19:12:06.636Z,2.58
2023-04-24T19:14:33.500Z,2.67
2023-04-24T19:17:00.007Z,2.88
2023-04-24T19:19:28.226Z,2.90
2023-04-24T19:21:54.988Z,3.65
2023-04-24T19:24:21.547Z,3.20
2023-04-24T19:26:48.022Z,3.05
2023-04-24T19:29:14.590Z,3.50
2023-04-24T19:31:41.277Z,2.72
2023-04-24T19:34:07.825Z,3.20
2023-04-24T19:36:34.348Z,2.90
2023-04-24T19:39:00.985Z,2.85
2023-04-24T19:41:29.762Z,3.00
2023-04-24T19:43:56.320Z,3.20
2023-04-24T19:46:23.042Z,3.03
2023-04-24T19:48:50.638Z,3.33
2023-04-24T19:51:17.571Z,2.85
2023-04-24T19:53:44.998Z,2.90
2023-04-24T19:56:11.618Z,3.20
2023-04-24T19:58:38.063Z,3.15
2023-04-24T20:01:05.955Z,3.30
2023-04-24T20:03:34.076Z,3.72
2023-04-24T20:06:01.165Z,3.95
2023-04-24T20:08:27.702Z,3.70
2023-04-24T20:10:57.876Z,2.63
2023-04-24T20:13:25.234Z,2.92
2023-04-24T20:15:51.773Z,3.72
2023-04-24T20:18:18.302Z,3.38
2023-04-24T20:20:45.586Z,4.10
2023-04-24T20:23:12.100Z,3.90
2023-04-24T20:25:38.700Z,3.15
2023-04-24T20:28:05.303Z,3.80
2023-04-24T20:30:31.952Z,3.00
2023-04-24T20:32:58.720Z,3.00
2023-04-24T20:35:25.322Z,3.78
2023-04-24T20:37:53.629Z,3.00
2023-04-24T20:40:20.282Z,2.80
2023-04-24T20:42:46.754Z,3.20
2023-04-24T20:45:13.255Z,4.18
2023-04-24T20:47:39.822Z,3.58
2023-04-24T20:50:07.144Z,3.90
2023-04-24T20:52:33.711Z,3.50
2023-04-24T20:55:00.389Z,4.10
2023-04-24T20:57:27.658Z,3.70
2023-04-24T20:59:54.732Z,3.85
2023-04-24T21:02:21.394Z,3.63
2023-04-24T21:04:47.994Z,3.80
2023-04-24T21:07:15.716Z,3.72
2023-04-24T21:09:42.283Z,3.80
2023-04-24T21:12:08.764Z,3.42
2023-04-24T21:14:35.253Z,3.42
2023-04-24T21:17:03.192Z,4.40
2023-04-24T21:19:29.859Z,4.30
2023-04-24T21:21:56.559Z,4.30
2023-04-24T21:24:23.077Z,3.97
2023-04-24T21:26:49.769Z,3.33
2023-04-24T21:29:16.352Z,4.00
2023-04-24T21:31:42.892Z,4.28
2023-04-24T21:34:09.456Z,4.28
2023-04-24T21:36:36.011Z,3.45
2023-04-24T21:39:02.529Z,3.78
2023-04-24T21:41:28.983Z,4.30
2023-04-24T21:43:55.871Z,3.40
2023-04-24T21:46:22.769Z,3.20
2023-04-24T21:48:49.247Z,3.28
2023-04-24T21:51:16.689Z,2.72
2023-04-24T21:53:43.302Z,3.05
2023-04-24T21:56:09.823Z,3.00
2023-04-24T21:58:36.676Z,2.88
2023-04-24T22:01:03.181Z,2.78
2023-04-24T22:03:30.375Z,3.60
2023-04-24T22:05:57.078Z,3.55
2023-04-24T22:08:23.597Z,4.72
2023-04-24T22:10:51.504Z,4.72
2023-04-24T22:13:18.024Z,4.32
2023-04-24T22:15:44.573Z,4.78
2023-04-24T22:18:12.662Z,4.50
2023-04-24T22:20:39.834Z,5.07
2023-04-24T22:23:06.279Z,4.32
2023-04-24T22:25:33.087Z,4.47
2023-04-24T22:27:59.541Z,4.30
2023-04-24T22:30:26.081Z,3.88
2023-04-24T22:32:52.581Z,4.60
2023-04-24T22:35:20.361Z,3.60
2023-04-24T22:37:48.859Z,3.35
2023-04-24T22:40:15.841Z,3.30
2023-04-24T22:42:42.370Z,3.05
2023-04-24T22:45:11.339Z,3.03
2023-04-24T22:47:37.866Z,2.97
2023-04-24T22:50:05.849Z,3.03
2023-04-24T22:52:32.637Z,3.13
2023-04-24T22:54:59.145Z,3.30
2023-04-24T22:57:25.713Z,3.13
2023-04-24T22:59:53.582Z,3.47
2023-04-24T23:02:20.242Z,3.13
2023-04-24T23:04:48.381Z,3.35
2023-04-24T23:07:14.888Z,3.45
2023-04-24T23:09:41.620Z,2.90
2023-04-24T23:12:08.232Z,3.05
2023-04-24T23:14:34.787Z,2.92
2023-04-24T23:17:01.334Z,3.10
2023-04-24T23:19:27.867Z,3.50
2023-04-24T23:21:54.332Z,2.72
2023-04-24T23:24:20.781Z,3.55
2023-04-24T23:26:47.241Z,3.08
2023-04-24T23:29:13.733Z,2.90
2023-04-24T23:31:40.498Z,3.20
2023-04-24T23:34:07.008Z,2.97
2023-04-24T23:36:33.556Z,3.03
2023-04-24T23:39:01.204Z,2.58
2023-04-24T23:41:27.720Z,2.90
2023-04-24T23:43:54.216Z,2.80
2023-04-24T23:46:20.719Z,3.00
2023-04-24T23:48:47.347Z,3.63
2023-04-24T23:51:14.064Z,3.25
2023-04-24T23:53:41.486Z,3.20
2023-04-24T23:56:08.140Z,3.22
2023-04-24T23:58:35.208Z,3.15
